createdAt,value
2022-12-20T00:01:28.669Z,12.70
2022-12-20T00:03:57.418Z,13.20
2022-12-20T00:06:25.193Z,13.98
2022-12-20T00:09:01.634Z,13.40
2022-12-20T00:11:30.157Z,12.55
2022-12-20T00:14:06.188Z,13.18
2022-12-20T00:16:44.561Z,12.20
2022-12-20T00:19:34.556Z,13.68
2022-12-20T00:22:01.443Z,12.07
2022-12-20T00:24:28.362Z,11.48
2022-12-20T00:26:55.231Z,13.05
2022-12-20T00:29:22.162Z,12.07
2022-12-20T00:31:49.121Z,12.70
2022-12-20T00:34:16.006Z,11.73
2022-12-20T00:36:42.934Z,13.80
2022-12-20T00:39:10.255Z,12.07
2022-12-20T00:41:37.327Z,12.88
2022-12-20T00:44:05.339Z,13.05
2022-12-20T00:46:34.377Z,13.40
2022-12-20T00:49:01.727Z,12.35
2022-12-20T00:51:30.588Z,12.32
2022-12-20T00:53:57.537Z,13.10
2022-12-20T00:56:25.835Z,14.18
2022-12-20T00:58:53.616Z,11.65
2022-12-20T01:01:24.201Z,13.52
2022-12-20T01:03:52.577Z,12.52
2022-12-20T01:06:20.252Z,12.55
2022-12-20T01:08:47.245Z,12.80
2022-12-20T01:11:25.709Z,12.32
2022-12-20T01:13:56.053Z,11.68
2022-12-20T01:16:27.658Z,13.00
2022-12-20T01:18:54.997Z,10.88
2022-12-20T01:21:23.902Z,12.57
2022-12-20T01:23:51.198Z,12.10
2022-12-20T01:26:20.589Z,11.07
2022-12-20T01:28:48.266Z,13.05
2022-12-20T01:31:17.901Z,12.32
2022-12-20T01:33:45.921Z,12.02
2022-12-20T01:36:16.782Z,14.45
2022-12-20T01:38:43.954Z,11.23
2022-12-20T01:41:19.636Z,11.55
2022-12-20T01:43:48.645Z,12.48
2022-12-20T01:46:15.733Z,12.15
2022-12-20T01:48:46.467Z,11.80
2022-12-20T01:51:13.864Z,11.60
2022-12-20T01:53:41.103Z,11.40
2022-12-20T01:56:08.926Z,12.40
2022-12-20T01:58:38.999Z,12.77
2022-12-20T02:01:06.357Z,13.15
2022-12-20T02:03:33.527Z,12.07
2022-12-20T02:06:14.917Z,11.00
2022-12-20T02:08:42.133Z,10.82
2022-12-20T02:11:17.921Z,13.85
2022-12-20T02:13:52.009Z,12.73
2022-12-20T02:16:24.619Z,12.07
2022-12-20T02:19:11.169Z,12.52
2022-12-20T02:21:52.744Z,12.43
2022-12-20T02:24:33.000Z,10.80
2022-12-20T02:27:03.046Z,10.45
2022-12-20T02:29:37.980Z,11.15
2022-12-20T02:32:18.081Z,12.13
2022-12-20T02:34:45.249Z,11.57
2022-12-20T02:37:12.565Z,10.45
2022-12-20T02:39:41.439Z,12.13
2022-12-20T02:42:11.600Z,10.52
2022-12-20T02:45:05.245Z,11.23
2022-12-20T02:47:40.844Z,11.18
2022-12-20T02:50:10.266Z,11.90
2022-12-20T02:52:38.568Z,10.85
2022-12-20T02:55:06.374Z,11.20
2022-12-20T02:57:53.301Z,11.20
2022-12-20T03:00:24.093Z,10.23
2022-12-20T03:03:10.668Z,11.68
2022-12-20T03:05:45.468Z,10.35
2022-12-20T03:08:12.501Z,11.50
2022-12-20T03:10:39.411Z,12.50
2022-12-20T03:13:06.255Z,11.13
2022-12-20T03:15:33.098Z,10.32
2022-12-20T03:17:59.893Z,11.00
2022-12-20T03:20:26.720Z,11.23
2022-12-20T03:22:53.527Z,10.60
2022-12-20T03:25:20.510Z,10.32
2022-12-20T03:27:47.733Z,11.40
2022-12-20T03:30:15.268Z,11.05
2022-12-20T03:32:42.220Z,10.52
2022-12-20T03:35:09.443Z,10.60
2022-12-20T03:37:36.422Z,10.45
2022-12-20T03:40:03.456Z,9.80
2022-12-20T03:42:30.274Z,10.60
2022-12-20T03:44:57.231Z,10.98
2022-12-20T03:47:24.213Z,13.05
2022-12-20T03:49:52.029Z,11.15
2022-12-20T03:52:19.205Z,11.10
2022-12-20T03:54:46.138Z,10.18
2022-12-20T03:57:12.994Z,9.95
2022-12-20T03:59:39.934Z,9.20
2022-12-20T04:02:06.951Z,10.35
2022-12-20T04:04:33.877Z,9.35
2022-12-20T04:07:00.894Z,9.25
2022-12-20T04:09:27.848Z,11.38
2022-12-20T04:11:54.678Z,10.05
2022-12-20T04:14:21.580Z,10.98
2022-12-20T04:16:48.464Z,9.75
2022-12-20T04:19:15.429Z,11.10
2022-12-20T04:21:42.372Z,10.32
2022-12-20T04:24:09.332Z,11.23
2022-12-20T04:26:36.490Z,10.23
2022-12-20T04:29:03.691Z,11.45
2022-12-20T04:31:30.591Z,9.77
2022-12-20T04:33:57.510Z,10.25
2022-12-20T04:36:24.436Z,11.02
2022-12-20T04:38:51.459Z,9.55
2022-12-20T04:41:24.131Z,10.32
2022-12-20T04:43:53.110Z,10.70
2022-12-20T04:46:20.888Z,10.82
2022-12-20T04:48:57.754Z,11.05
2022-12-20T04:51:25.589Z,10.05
2022-12-20T04:53:52.443Z,10.02
2022-12-20T04:56:25.679Z,9.55
2022-12-20T04:58:54.162Z,10.00
2022-12-20T05:01:22.191Z,9.65
2022-12-20T05:03:49.704Z,11.10
2022-12-20T05:06:17.580Z,10.48
2022-12-20T05:08:44.589Z,10.45
2022-12-20T05:11:11.858Z,10.48
2022-12-20T05:13:39.128Z,10.65
2022-12-20T05:16:06.419Z,11.60
2022-12-20T05:18:33.453Z,10.63
2022-12-20T05:21:20.737Z,9.75
2022-12-20T05:24:06.536Z,9.73
2022-12-20T05:26:36.594Z,10.48
2022-12-20T05:29:04.412Z,10.40
2022-12-20T05:31:32.024Z,10.90
2022-12-20T05:33:59.057Z,9.60
2022-12-20T05:36:25.963Z,10.00
2022-12-20T05:38:55.524Z,11.05
2022-12-20T05:41:27.011Z,9.25
2022-12-20T05:43:53.816Z,10.45
2022-12-20T05:46:20.745Z,9.43
2022-12-20T05:48:47.710Z,9.93
2022-12-20T05:51:14.609Z,9.70
2022-12-20T05:53:41.446Z,8.32
2022-12-20T05:56:08.452Z,8.57
2022-12-20T05:58:35.471Z,8.45
2022-12-20T06:01:04.303Z,9.32
2022-12-20T06:03:31.363Z,9.10
2022-12-20T06:05:58.426Z,9.18
2022-12-20T06:08:25.415Z,8.38
2022-12-20T06:10:52.613Z,9.00
2022-12-20T06:13:19.487Z,7.57
2022-12-20T06:15:46.890Z,7.78
2022-12-20T06:18:13.925Z,8.20
2022-12-20T06:20:40.709Z,8.63
2022-12-20T06:23:07.815Z,9.02
2022-12-20T06:25:34.701Z,9.60
2022-12-20T06:28:01.699Z,8.23
2022-12-20T06:30:33.614Z,8.32
2022-12-20T06:33:01.928Z,8.15
2022-12-20T06:35:29.343Z,8.35
2022-12-20T06:37:56.816Z,9.88
2022-12-20T06:40:24.066Z,9.80
2022-12-20T06:42:50.959Z,8.48
2022-12-20T06:45:17.817Z,10.27
2022-12-20T06:47:44.840Z,7.55
2022-12-20T06:50:11.765Z,7.00
2022-12-20T06:52:38.526Z,8.30
2022-12-20T06:55:05.649Z,8.80
2022-12-20T06:57:33.159Z,8.05
2022-12-20T07:00:00.083Z,10.73
2022-12-20T07:02:28.080Z,7.30
2022-12-20T07:04:55.444Z,8.55
2022-12-20T07:07:22.644Z,8.60
2022-12-20T07:09:49.509Z,9.30
2022-12-20T07:12:16.717Z,9.55
2022-12-20T07:14:43.618Z,8.65
2022-12-20T07:17:11.212Z,7.45
2022-12-20T07:19:38.376Z,7.55
2022-12-20T07:22:05.924Z,8.35
2022-12-20T07:24:33.440Z,8.25
2022-12-20T07:27:01.167Z,9.77
2022-12-20T07:29:28.539Z,9.90
2022-12-20T07:31:55.424Z,8.50
2022-12-20T07:34:22.400Z,9.45
2022-12-20T07:36:49.281Z,9.23
2022-12-20T07:39:16.378Z,9.23
2022-12-20T07:41:43.323Z,9.82
2022-12-20T07:44:10.489Z,9.15
2022-12-20T07:46:37.368Z,9.32
2022-12-20T07:49:05.748Z,9.50
2022-12-20T07:51:37.326Z,9.20
2022-12-20T07:54:14.337Z,9.63
2022-12-20T07:56:46.005Z,8.77
2022-12-20T07:59:15.532Z,10.30
2022-12-20T08:01:44.923Z,8.93
2022-12-20T08:04:21.509Z,9.43
2022-12-20T08:06:50.777Z,8.70
2022-12-20T08:09:17.694Z,8.63
2022-12-20T08:11:48.239Z,9.05
2022-12-20T08:14:15.657Z,9.85
2022-12-20T08:16:43.727Z,9.80
2022-12-20T08:19:10.951Z,9.73
2022-12-20T08:21:37.749Z,8.88
2022-12-20T08:24:05.201Z,9.68
2022-12-20T08:26:32.255Z,8.85
2022-12-20T08:28:59.045Z,10.00
2022-12-20T08:31:25.952Z,9.10
2022-12-20T08:33:54.998Z,9.52
2022-12-20T08:36:21.896Z,9.77
2022-12-20T08:38:48.762Z,9.10
2022-12-20T08:41:16.436Z,9.50
2022-12-20T08:43:43.798Z,10.32
2022-12-20T08:46:12.548Z,10.13
2022-12-20T08:48:40.286Z,8.50
2022-12-20T08:51:09.559Z,10.48
2022-12-20T08:53:37.126Z,9.93
2022-12-20T08:56:15.346Z,9.13
2022-12-20T08:58:43.642Z,8.95
2022-12-20T09:01:12.984Z,10.32
2022-12-20T09:03:40.889Z,10.38
2022-12-20T09:06:11.119Z,10.27
2022-12-20T09:08:39.365Z,10.25
2022-12-20T09:11:08.888Z,9.38
2022-12-20T09:13:41.617Z,10.45
2022-12-20T09:16:12.240Z,10.30
2022-12-20T09:18:39.164Z,9.90
2022-12-20T09:21:08.004Z,10.02
2022-12-20T09:23:36.712Z,10.18
2022-12-20T09:26:11.034Z,10.13
2022-12-20T09:28:38.107Z,10.32
2022-12-20T09:31:09.396Z,10.73
2022-12-20T09:33:36.569Z,10.30
2022-12-20T09:36:04.509Z,11.43
2022-12-20T09:38:32.244Z,10.23
2022-12-20T09:41:02.814Z,10.45
2022-12-20T09:43:29.925Z,10.85
2022-12-20T09:45:59.974Z,12.20
2022-12-20T09:48:35.454Z,12.00
2022-12-20T09:51:32.936Z,11.73
2022-12-20T09:54:18.152Z,11.25
2022-12-20T09:57:11.762Z,11.18
2022-12-20T09:59:47.505Z,10.38
2022-12-20T10:02:56.600Z,10.95
2022-12-20T10:05:27.719Z,11.00
2022-12-20T10:08:25.865Z,10.98
2022-12-20T10:11:21.467Z,10.90
2022-12-20T10:13:57.528Z,11.55
2022-12-20T10:16:36.181Z,11.60
2022-12-20T10:19:29.086Z,11.63
2022-12-20T10:22:05.307Z,10.70
2022-12-20T10:24:34.727Z,11.85
2022-12-20T10:27:17.597Z,12.00
2022-12-20T10:29:45.250Z,11.10
2022-12-20T10:32:15.092Z,12.70
2022-12-20T10:35:19.368Z,11.98
2022-12-20T10:38:08.466Z,11.73
2022-12-20T10:43:43.670Z,11.00
2022-12-20T10:46:11.605Z,11.73
2022-12-20T10:48:41.124Z,11.48
2022-12-20T10:51:15.892Z,12.10
2022-12-20T10:54:02.216Z,11.93
2022-12-20T10:56:30.398Z,10.60
2022-12-20T10:58:59.608Z,11.48
2022-12-20T11:01:33.441Z,12.02
2022-12-20T11:04:03.750Z,11.43
2022-12-20T11:06:43.996Z,11.45
2022-12-20T11:09:25.172Z,12.30
2022-12-20T11:12:05.707Z,12.20
2022-12-20T11:14:39.230Z,12.68
2022-12-20T11:17:34.169Z,10.75
2022-12-20T11:20:34.679Z,12.93
2022-12-20T11:23:04.306Z,12.05
2022-12-20T11:25:37.172Z,13.30
2022-12-20T11:28:28.129Z,10.65
2022-12-20T11:31:09.320Z,12.23
2022-12-20T11:33:56.491Z,12.77
2022-12-20T11:36:46.933Z,12.38
2022-12-20T11:39:48.932Z,12.35
2022-12-20T11:42:34.508Z,11.90
2022-12-20T11:45:26.207Z,12.48
2022-12-20T11:48:31.878Z,12.40
2022-12-20T11:51:22.891Z,12.60
2022-12-20T11:54:04.769Z,13.50
2022-12-20T11:56:53.071Z,12.95
2022-12-20T11:59:50.675Z,12.35
2022-12-20T12:02:56.473Z,12.73
2022-12-20T12:05:51.702Z,12.80
2022-12-20T12:08:23.498Z,12.18
2022-12-20T12:12:04.014Z,11.43
2022-12-20T12:14:07.170Z,12.82
2022-12-20T12:16:45.574Z,12.63
2022-12-20T12:19:13.667Z,12.52
2022-12-20T12:21:47.194Z,11.60
2022-12-20T12:24:23.141Z,12.20
2022-12-20T12:26:50.118Z,13.10
2022-12-20T12:29:19.427Z,12.35
2022-12-20T12:32:02.316Z,12.55
2022-12-20T12:34:47.782Z,13.82
2022-12-20T12:37:26.469Z,13.82
2022-12-20T12:40:30.977Z,14.23
2022-12-20T12:43:25.544Z,13.00
2022-12-20T12:46:13.956Z,12.98
2022-12-20T12:48:41.258Z,12.52
2022-12-20T12:51:09.556Z,13.65
2022-12-20T12:53:43.348Z,13.55
2022-12-20T12:56:45.912Z,12.25
2022-12-20T12:59:13.146Z,14.02
2022-12-20T13:02:00.601Z,13.05
2022-12-20T13:04:29.850Z,12.73
2022-12-20T13:07:00.263Z,13.50
2022-12-20T13:09:27.345Z,13.18
2022-12-20T13:12:03.261Z,13.32
2022-12-20T13:14:32.325Z,13.80
2022-12-20T13:17:14.708Z,14.30
2022-12-20T13:19:55.193Z,14.77
2022-12-20T13:22:24.747Z,14.10
2022-12-20T13:24:57.884Z,12.02
2022-12-20T13:27:27.840Z,12.30
2022-12-20T13:30:13.784Z,13.50
2022-12-20T13:32:57.533Z,13.32
2022-12-20T13:35:27.963Z,13.63
2022-12-20T13:38:06.171Z,13.23
2022-12-20T13:40:36.133Z,13.80
2022-12-20T13:43:10.775Z,14.15
2022-12-20T13:45:40.674Z,12.93
2022-12-20T13:48:12.833Z,14.10
2022-12-20T13:50:41.798Z,12.90
2022-12-20T13:53:17.989Z,13.63
2022-12-20T13:55:45.547Z,13.80
2022-12-20T13:58:18.982Z,14.02
2022-12-20T14:00:47.785Z,12.73
2022-12-20T14:03:19.636Z,12.48
2022-12-20T14:05:47.066Z,13.65
2022-12-20T14:08:21.809Z,14.70
2022-12-20T14:10:48.860Z,12.73
2022-12-20T14:13:27.016Z,15.02
2022-12-20T14:15:54.563Z,13.75
2022-12-20T14:18:26.245Z,13.07
2022-12-20T14:20:59.770Z,14.20
2022-12-20T14:23:48.841Z,13.05
2022-12-20T14:26:30.633Z,12.90
2022-12-20T14:28:59.711Z,12.75
2022-12-20T14:31:33.096Z,15.05
2022-12-20T14:34:12.099Z,13.52
2022-12-20T14:36:41.021Z,12.45
2022-12-20T14:39:53.739Z,13.98
2022-12-20T14:42:21.141Z,12.30
2022-12-20T14:44:48.189Z,15.20
2022-12-20T14:47:26.343Z,13.98
2022-12-20T14:50:00.901Z,14.45
2022-12-20T14:52:35.270Z,12.90
2022-12-20T14:55:14.473Z,13.60
2022-12-20T14:57:53.204Z,13.93
2022-12-20T15:00:30.186Z,13.95
2022-12-20T15:02:59.081Z,13.82
2022-12-20T15:05:35.376Z,13.63
2022-12-20T15:08:20.563Z,12.85
2022-12-20T15:11:01.465Z,12.80
2022-12-20T15:13:34.321Z,13.20
2022-12-20T15:16:04.678Z,12.55
2022-12-20T15:18:32.501Z,14.32
2022-12-20T15:21:13.152Z,14.55
2022-12-20T15:23:47.827Z,13.90
2022-12-20T15:26:16.965Z,11.82
2022-12-20T15:28:44.123Z,14.55
2022-12-20T15:31:17.320Z,14.18
2022-12-20T15:33:45.344Z,14.32
2022-12-20T15:36:23.494Z,13.73
2022-12-20T15:41:40.524Z,14.65
2022-12-20T15:44:11.556Z,13.98
2022-12-20T15:46:38.347Z,14.57
2022-12-20T15:49:05.151Z,13.75
2022-12-20T15:51:34.869Z,14.52
2022-12-20T15:54:05.174Z,13.02
2022-12-20T15:56:32.104Z,12.20
2022-12-20T15:58:59.175Z,14.40
2022-12-20T16:01:40.397Z,14.00
2022-12-20T16:04:13.701Z,12.60
2022-12-20T16:06:40.620Z,12.43
2022-12-20T16:09:07.426Z,13.23
2022-12-20T16:11:34.315Z,14.52
2022-12-20T16:14:01.251Z,13.20
2022-12-20T16:16:31.720Z,14.27
2022-12-20T16:18:58.678Z,13.60
2022-12-20T16:21:32.435Z,14.32
2022-12-20T16:23:59.221Z,14.43
2022-12-20T16:26:27.018Z,14.32
2022-12-20T16:28:55.304Z,14.20
2022-12-20T16:31:31.511Z,14.38
2022-12-20T16:34:00.463Z,15.50
2022-12-20T16:36:27.343Z,14.20
2022-12-20T16:38:54.272Z,14.57
2022-12-20T16:41:27.572Z,13.35
2022-12-20T16:43:55.777Z,12.82
2022-12-20T16:46:26.304Z,14.07
2022-12-20T16:48:54.454Z,13.02
2022-12-20T16:51:46.576Z,14.98
2022-12-20T16:54:22.480Z,14.48
2022-12-20T16:56:55.494Z,14.20
2022-12-20T16:59:24.417Z,13.60
2022-12-20T17:01:56.583Z,13.23
2022-12-20T17:04:24.491Z,14.40
2022-12-20T17:06:51.291Z,14.13
2022-12-20T17:12:05.659Z,14.07
2022-12-20T17:14:32.475Z,15.18
2022-12-20T17:17:00.054Z,13.98
2022-12-20T17:19:26.969Z,15.20
2022-12-20T17:24:38.064Z,14.10
2022-12-20T17:27:05.010Z,14.35
2022-12-20T17:29:31.801Z,13.52
2022-12-20T17:31:58.696Z,14.93
2022-12-20T17:34:28.532Z,13.65
2022-12-20T17:36:57.430Z,13.55
2022-12-20T17:39:25.830Z,14.93
2022-12-20T17:41:54.813Z,14.93
2022-12-20T17:44:27.554Z,13.25
2022-12-20T17:46:56.147Z,14.65
2022-12-20T17:49:24.000Z,14.23
2022-12-20T17:51:51.647Z,14.23
2022-12-20T17:54:20.192Z,14.95
2022-12-20T17:56:47.511Z,14.20
2022-12-20T17:59:14.513Z,13.27
2022-12-20T18:01:43.044Z,13.93
2022-12-20T18:15:47.832Z,13.90
2022-12-20T18:18:14.644Z,15.40
2022-12-20T18:20:41.445Z,13.55
2022-12-20T18:23:08.429Z,13.45
2022-12-20T18:25:35.272Z,14.75
2022-12-20T18:28:02.087Z,15.40
2022-12-20T18:30:30.227Z,13.98
2022-12-20T18:32:57.210Z,13.13
2022-12-20T18:35:24.053Z,13.48
2022-12-20T18:37:50.919Z,13.43
2022-12-20T18:40:17.797Z,14.80
2022-12-20T18:42:44.990Z,14.15
2022-12-20T18:45:11.811Z,13.45
2022-12-20T18:47:38.675Z,15.80
2022-12-20T18:50:06.831Z,14.88
2022-12-20T18:52:33.644Z,13.82
2022-12-20T18:55:01.018Z,14.27
2022-12-20T18:57:27.834Z,14.98
2022-12-20T18:59:54.683Z,14.02
2022-12-20T19:02:22.195Z,13.20
2022-12-20T19:04:49.238Z,14.02
2022-12-20T19:07:16.236Z,15.98
2022-12-20T19:09:43.051Z,13.85
2022-12-20T19:12:11.116Z,14.50
2022-12-20T19:14:37.939Z,13.60
2022-12-20T19:17:04.971Z,14.20
2022-12-20T19:19:31.903Z,12.93
2022-12-20T19:21:58.999Z,15.02
2022-12-20T19:24:25.784Z,13.75
2022-12-20T19:26:52.660Z,14.43
2022-12-20T19:29:19.550Z,13.65
2022-12-20T19:31:47.818Z,13.60
2022-12-20T19:34:15.620Z,13.30
2022-12-20T19:36:47.155Z,14.63
2022-12-20T19:39:24.771Z,13.68
2022-12-20T19:42:22.438Z,12.65
2022-12-20T19:44:39.624Z,13.50
2022-12-20T19:47:06.745Z,15.00
2022-12-20T19:49:35.646Z,12.13
2022-12-20T19:52:03.173Z,14.15
2022-12-20T19:54:30.012Z,13.98
2022-12-20T19:56:57.562Z,13.65
2022-12-20T19:59:24.951Z,13.00
2022-12-20T20:01:51.990Z,13.23
2022-12-20T20:04:18.867Z,14.02
2022-12-20T20:06:45.799Z,14.23
2022-12-20T20:09:12.551Z,13.77
2022-12-20T20:11:39.355Z,13.63
2022-12-20T20:14:09.500Z,14.90
2022-12-20T20:16:37.900Z,13.45
2022-12-20T20:19:05.689Z,13.90
2022-12-20T20:21:35.066Z,13.50
2022-12-20T20:24:02.466Z,12.25
2022-12-20T20:26:31.608Z,14.27
2022-12-20T20:29:00.144Z,12.60
2022-12-20T20:31:26.977Z,14.30
2022-12-20T20:33:53.781Z,13.52
2022-12-20T20:36:23.171Z,13.73
2022-12-20T20:38:51.770Z,13.30
2022-12-20T20:41:19.420Z,13.07
2022-12-20T20:43:46.310Z,13.65
2022-12-20T20:46:15.422Z,14.30
2022-12-20T20:48:42.957Z,14.25
2022-12-20T20:51:10.533Z,13.57
2022-12-20T20:53:37.589Z,13.05
2022-12-20T20:56:05.785Z,12.77
2022-12-20T20:58:33.437Z,14.10
2022-12-20T21:01:01.850Z,12.32
2022-12-20T21:03:30.293Z,13.00
2022-12-20T21:06:34.871Z,12.88
2022-12-20T21:08:44.753Z,13.27
2022-12-20T21:11:12.232Z,13.20
2022-12-20T21:13:39.248Z,12.07
2022-12-20T21:16:08.137Z,12.73
2022-12-20T21:18:35.140Z,12.80
2022-12-20T21:21:13.141Z,12.55
2022-12-20T21:23:44.319Z,12.70
2022-12-20T21:26:11.186Z,12.93
2022-12-20T21:28:38.243Z,12.77
2022-12-20T21:31:09.576Z,13.23
2022-12-20T21:33:36.504Z,14.45
2022-12-20T21:36:08.816Z,13.10
2022-12-20T21:38:35.770Z,14.63
2022-12-20T21:41:05.822Z,14.40
2022-12-20T21:43:33.090Z,11.77
2022-12-20T21:46:00.555Z,13.00
2022-12-20T21:48:29.644Z,12.25
2022-12-20T21:51:04.226Z,13.75
2022-12-20T21:53:32.287Z,14.00
2022-12-20T21:56:00.754Z,14.77
2022-12-20T21:58:30.106Z,13.95
2022-12-20T22:00:57.702Z,14.50
2022-12-20T22:03:26.017Z,11.85
2022-12-20T22:05:55.656Z,14.75
2022-12-20T22:08:23.720Z,14.63
2022-12-20T22:11:05.725Z,12.85
2022-12-20T22:13:40.802Z,13.75
2022-12-20T22:16:16.667Z,13.40
2022-12-20T22:18:44.941Z,13.80
2022-12-20T22:21:13.464Z,12.70
2022-12-20T22:23:40.925Z,14.85
2022-12-20T22:26:11.641Z,14.50
2022-12-20T22:28:40.266Z,13.50
2022-12-20T22:31:11.238Z,14.10
2022-12-20T22:33:38.806Z,13.38
2022-12-20T22:36:07.050Z,13.98
2022-12-20T22:38:34.423Z,13.05
2022-12-20T22:41:07.410Z,13.32
2022-12-20T22:43:34.254Z,13.02
2022-12-20T22:48:46.774Z,13.40
2022-12-20T22:51:22.156Z,13.18
2022-12-20T22:53:49.741Z,13.15
2022-12-20T22:56:19.514Z,13.98
2022-12-20T22:58:46.664Z,13.45
2022-12-20T23:01:15.897Z,13.13
2022-12-20T23:03:43.115Z,15.07
2022-12-20T23:06:13.622Z,14.80
2022-12-20T23:08:40.896Z,13.55
2022-12-20T23:11:47.566Z,12.63
2022-12-20T23:14:35.534Z,13.52
2022-12-20T23:17:03.350Z,13.60
2022-12-20T23:19:53.308Z,14.02
2022-12-20T23:22:40.436Z,13.98
2022-12-20T23:25:11.976Z,13.05
2022-12-20T23:27:40.661Z,13.50
2022-12-20T23:30:10.823Z,12.93
2022-12-20T23:32:37.804Z,14.80
2022-12-20T23:35:11.963Z,13.57
2022-12-20T23:37:39.708Z,14.77
2022-12-20T23:40:07.341Z,12.93
2022-12-20T23:42:34.254Z,13.60
2022-12-20T23:45:01.223Z,14.13
2022-12-20T23:47:28.085Z,13.20
2022-12-20T23:49:54.891Z,13.27
2022-12-20T23:52:22.078Z,12.95
2022-12-20T23:54:48.897Z,13.65
2022-12-20T23:57:16.434Z,14.25
2022-12-20T23:59:43.207Z,12.80
